Time;durP1;ratioP1;P1;durP2;ratioP2;P2;SDS_P1;SDS_P2;PMS_P1;PMS_P2;Temp;Humidity;BMP_temperature;BMP_pressure;BME280_temperature;BME280_humidity;BME280_pressure;Samples;Min_cycle;Max_cycle;Signal;HPM_P1;HPM_P2
2022/01/27 00:01:29;;;;;;;31.02;14.00;;;1.70;82.50;;;;;;5012719;28;20296;-53
2022/01/27 00:04:14;;;;;;;35.70;16.00;;;1.50;83.40;;;;;;5013905;28;20214;-58
2022/01/27 00:06:42;;;;;;;40.42;16.25;;;1.40;83.50;;;;;;5013767;28;20257;-55
2022/01/27 00:09:25;;;;;;;35.72;16.63;;;1.40;84.00;;;;;;5013722;28;20211;-55
2022/01/27 00:11:52;;;;;;;36.00;16.35;;;1.50;83.70;;;;;;5013323;28;20572;-55
2022/01/27 00:14:21;;;;;;;30.73;15.43;;;1.50;83.60;;;;;;5013677;28;20302;-54
2022/01/27 00:16:58;;;;;;;30.88;15.85;;;1.40;83.20;;;;;;5012437;28;20213;-53
2022/01/27 00:19:25;;;;;;;39.40;16.42;;;1.40;84.00;;;;;;5013580;28;20202;-56
2022/01/27 00:21:53;;;;;;;43.00;16.60;;;1.50;83.90;;;;;;5013524;28;20294;-53
2022/01/27 00:24:20;;;;;;;39.13;17.50;;;1.60;83.40;;;;;;5013396;28;20207;-57
2022/01/27 00:26:47;;;;;;;35.92;16.20;;;1.60;83.00;;;;;;5013252;28;20290;-57
2022/01/27 00:29:14;;;;;;;40.72;15.70;;;1.60;82.70;;;;;;5013482;28;20199;-56
2022/01/27 00:31:42;;;;;;;41.15;16.80;;;1.50;82.60;;;;;;5012094;28;20225;-56
2022/01/27 00:34:09;;;;;;;38.38;16.38;;;1.10;83.50;;;;;;5013365;28;20618;-55
2022/01/27 00:36:35;;;;;;;41.58;16.45;;;1.10;84.50;;;;;;5013316;28;20676;-55
2022/01/27 00:39:02;;;;;;;38.72;16.48;;;1.20;84.40;;;;;;5013016;28;20213;-55
2022/01/27 00:41:29;;;;;;;43.40;16.80;;;1.30;84.60;;;;;;5013051;28;20293;-55
2022/01/27 00:43:56;;;;;;;37.90;17.13;;;1.40;84.10;;;;;;5013228;28;20900;-55
2022/01/27 00:46:24;;;;;;;38.95;16.85;;;1.20;84.10;;;;;;5010957;28;20210;-55
2022/01/27 00:48:52;;;;;;;36.08;16.05;;;1.30;84.00;;;;;;5013179;28;20563;-55
2022/01/27 00:51:23;;;;;;;44.67;20.58;;;1.40;84.00;;;;;;5013129;28;20230;-56
2022/01/27 00:53:57;;;;;;;42.40;17.77;;;1.20;83.90;;;;;;5013175;28;20276;-55
2022/01/27 00:56:30;;;;;;;40.03;17.52;;;1.10;84.50;;;;;;5012895;28;20309;-55
2022/01/27 00:59:17;;;;;;;45.92;17.45;;;1.20;84.90;;;;;;5013088;28;20685;-56
2022/01/27 01:01:50;;;;;;;34.00;15.02;;;1.30;84.60;;;;;;5011862;28;20572;-54
2022/01/27 01:04:24;;;;;;;35.17;15.75;;;1.40;84.20;;;;;;5013133;28;20207;-55
2022/01/27 01:06:52;;;;;;;38.67;16.05;;;1.50;84.10;;;;;;5013060;28;20238;-55
2022/01/27 01:14:48;;;;;;;45.58;16.27;;;1.70;83.20;;;;;;5011861;28;20586;-55
2022/01/27 01:20:18;;;;;;;41.45;17.48;;;1.60;83.30;;;;;;5011701;28;20201;-56
2022/01/27 01:31:10;;;;;;;40.95;17.23;;;1.80;83.00;;;;;;5011513;28;20206;-55
2022/01/27 01:33:39;;;;;;;34.67;17.55;;;1.70;82.70;;;;;;5012723;28;20713;-56
2022/01/27 01:36:15;;;;;;;44.67;17.25;;;1.70;83.00;;;;;;5012770;28;20296;-55
2022/01/27 01:38:44;;;;;;;44.30;18.42;;;1.80;82.80;;;;;;5012697;28;20605;-56
2022/01/27 01:41:11;;;;;;;37.13;16.70;;;1.80;82.90;;;;;;5012301;28;20239;-56
2022/01/27 01:43:38;;;;;;;46.60;18.15;;;1.80;82.90;;;;;;5012602;28;20217;-55
2022/01/27 01:46:05;;;;;;;43.35;17.67;;;1.80;82.80;;;;;;5011283;28;20662;-56
2022/01/27 01:48:32;;;;;;;44.40;18.60;;;1.90;82.80;;;;;;5012594;28;20209;-55
2022/01/27 01:50:59;;;;;;;48.35;18.05;;;1.90;82.70;;;;;;5012673;28;20302;-55
2022/01/27 01:53:27;;;;;;;43.03;18.30;;;1.90;82.20;;;;;;5012604;28;20234;-56
2022/01/27 01:55:54;;;;;;;35.85;17.55;;;1.80;82.70;;;;;;5012489;28;20233;-55
2022/01/27 01:58:22;;;;;;;47.67;19.23;;;1.90;82.50;;;;;;5015924;28;20234;-56
2022/01/27 02:00:48;;;;;;;45.08;18.40;;;1.80;82.70;;;;;;5014759;28;20221;-56
2022/01/27 02:03:15;;;;;;;38.72;16.85;;;1.80;82.50;;;;;;5016075;28;20740;-55
2022/01/27 02:05:48;;;;;;;44.40;17.63;;;1.90;82.50;;;;;;5016023;28;20245;-59
2022/01/27 02:08:43;;;;;;;47.88;17.70;;;1.90;82.40;;;;;;5015935;28;20558;-56
2022/01/27 02:19:29;;;;;;;40.88;16.92;;;1.80;82.70;;;;;;5015751;28;20201;-57
2022/01/27 02:21:59;;;;;;;45.65;18.90;;;1.80;82.70;;;;;;5015821;28;20215;-56
2022/01/27 02:24:29;;;;;;;39.58;16.77;;;1.80;82.20;;;;;;5015678;28;20209;-55
2022/01/27 02:26:57;;;;;;;43.08;18.35;;;1.80;82.70;;;;;;5015567;28;20210;-55
2022/01/27 02:29:25;;;;;;;38.72;17.50;;;1.90;82.40;;;;;;5015540;28;20203;-58
2022/01/27 02:31:54;;;;;;;41.17;16.73;;;1.90;82.00;;;;;;5014705;28;20207;-58
2022/01/27 02:34:21;;;;;;;42.78;18.05;;;1.80;82.20;;;;;;5015472;28;20325;-58
2022/01/27 02:36:48;;;;;;;40.67;17.50;;;1.80;81.80;;;;;;5015452;28;20217;-58
2022/01/27 02:39:18;;;;;;;49.45;18.27;;;1.70;82.70;;;;;;5015152;28;20249;-56
2022/01/27 02:41:53;;;;;;;38.88;17.17;;;1.80;82.70;;;;;;5015212;28;20235;-59
2022/01/27 02:44:29;;;;;;;38.72;17.98;;;1.90;82.50;;;;;;5015305;28;20212;-56
2022/01/27 02:46:56;;;;;;;46.85;16.77;;;1.90;82.20;;;;;;5015195;28;20210;-59
2022/01/27 02:49:23;;;;;;;43.30;19.10;;;1.90;82.20;;;;;;5015316;28;20217;-58
2022/01/27 02:51:50;;;;;;;41.47;18.05;;;2.00;82.20;;;;;;5015305;28;20207;-58
2022/01/27 02:54:18;;;;;;;37.35;16.88;;;2.00;82.00;;;;;;5015170;28;20321;-58
2022/01/27 02:56:47;;;;;;;38.58;16.15;;;2.00;81.80;;;;;;5014881;28;20223;-58
2022/01/27 02:59:15;;;;;;;41.88;17.67;;;1.90;81.60;;;;;;5015058;28;20666;-57
2022/01/27 03:01:44;;;;;;;34.47;16.75;;;1.60;81.50;;;;;;5013851;28;20305;-58
2022/01/27 03:04:11;;;;;;;39.33;18.83;;;1.30;82.50;;;;;;5014991;28;20670;-56
2022/01/27 03:06:37;;;;;;;40.80;18.13;;;1.10;83.00;;;;;;5014926;28;20680;-58
2022/01/27 03:09:04;;;;;;;39.03;17.67;;;0.90;84.00;;;;;;5013686;28;20213;-56
2022/01/27 03:11:39;;;;;;;44.53;17.80;;;1.10;84.40;;;;;;5014751;28;20203;-58
2022/01/27 03:14:06;;;;;;;43.55;19.63;;;1.30;84.20;;;;;;5014660;28;20568;-56
2022/01/27 03:16:33;;;;;;;39.67;17.08;;;1.40;83.80;;;;;;5013384;28;20202;-58
2022/01/27 03:19:00;;;;;;;41.40;19.30;;;1.50;83.50;;;;;;5014706;28;20298;-58
2022/01/27 03:21:27;;;;;;;38.38;16.45;;;1.50;82.80;;;;;;5014647;28;20207;-59
2022/01/27 03:23:54;;;;;;;39.33;16.67;;;1.50;83.00;;;;;;5014521;28;20302;-58
2022/01/27 03:26:22;;;;;;;41.42;17.83;;;1.30;83.30;;;;;;5014436;28;20203;-59
2022/01/27 03:28:50;;;;;;;37.58;16.00;;;1.30;84.00;;;;;;5014389;28;20211;-58
2022/01/27 03:31:17;;;;;;;37.47;15.98;;;1.40;83.80;;;;;;5013074;28;20680;-59
2022/01/27 03:33:44;;;;;;;35.22;15.80;;;1.50;83.50;;;;;;5014344;28;20234;-58
2022/01/27 03:36:12;;;;;;;32.28;15.65;;;1.40;83.40;;;;;;5014319;28;20213;-56
2022/01/27 03:38:39;;;;;;;30.55;14.68;;;1.20;83.40;;;;;;5014277;28;20202;-57
2022/01/27 03:41:08;;;;;;;36.63;16.10;;;1.00;83.80;;;;;;5013847;28;20760;-55
2022/01/27 03:43:36;;;;;;;41.45;17.27;;;0.90;84.70;;;;;;5014213;28;20305;-58
2022/01/27 03:46:05;;;;;;;27.05;14.60;;;1.00;84.90;;;;;;5012876;28;20214;-56
2022/01/27 03:48:31;;;;;;;32.97;17.02;;;1.20;84.60;;;;;;5014133;28;20206;-57
2022/01/27 03:50:58;;;;;;;30.88;15.88;;;1.10;83.80;;;;;;5014010;28;20243;-57
2022/01/27 03:53:25;;;;;;;34.05;15.20;;;1.10;84.20;;;;;;5013926;28;20230;-56
2022/01/27 03:55:52;;;;;;;30.23;15.23;;;1.20;84.60;;;;;;5013853;28;20222;-58
2022/01/27 03:58:19;;;;;;;34.83;16.95;;;1.30;84.30;;;;;;5014024;28;20294;-58
2022/01/27 04:00:46;;;;;;;31.65;14.95;;;1.50;84.10;;;;;;5012729;28;20781;-56
2022/01/27 04:03:16;;;;;;;28.33;14.50;;;1.60;83.50;;;;;;5013889;28;20232;-56
2022/01/27 04:05:49;;;;;;;34.35;16.92;;;1.60;83.30;;;;;;5013816;28;20661;-56
2022/01/27 04:08:16;;;;;;;26.52;13.85;;;1.60;82.70;;;;;;5013847;28;20233;-57
2022/01/27 04:10:44;;;;;;;31.58;14.77;;;1.60;82.50;;;;;;5013758;28;20294;-57
2022/01/27 04:13:11;;;;;;;32.50;15.73;;;1.30;82.50;;;;;;5013419;28;20616;-58
2022/01/27 04:15:42;;;;;;;33.72;14.85;;;1.30;83.30;;;;;;5012482;28;20199;-57
2022/01/27 04:18:09;;;;;;;23.92;14.70;;;1.40;83.50;;;;;;5013585;28;20563;-57
2022/01/27 04:20:38;;;;;;;35.17;15.45;;;1.50;83.30;;;;;;5013421;28;20244;-58
2022/01/27 04:23:05;;;;;;;34.33;15.10;;;1.60;82.90;;;;;;5013499;28;20220;-57
2022/01/27 04:25:31;;;;;;;35.42;16.60;;;1.50;82.80;;;;;;5013483;28;20286;-59
2022/01/27 04:28:03;;;;;;;34.25;15.07;;;1.50;82.90;;;;;;5013308;28;20765;-57
2022/01/27 04:30:30;;;;;;;36.20;16.40;;;1.50;82.10;;;;;;5012064;28;20202;-56
2022/01/27 04:32:59;;;;;;;35.67;17.13;;;1.50;82.60;;;;;;5013327;28;20677;-58
2022/01/27 04:35:28;;;;;;;35.28;16.00;;;1.40;82.00;;;;;;5013262;28;20213;-53
2022/01/27 04:38:11;;;;;;;35.78;18.00;;;1.20;82.30;;;;;;5013361;28;20609;-57
2022/01/27 04:40:45;;;;;;;33.42;17.88;;;0.80;82.90;;;;;;5013100;28;20238;-57
2022/01/27 04:43:21;;;;;;;37.00;18.10;;;0.40;84.40;;;;;;5013091;28;20210;-57
2022/01/27 04:45:56;;;;;;;37.55;18.35;;;0.40;85.40;;;;;;5012167;28;20297;-57
2022/01/27 04:48:24;;;;;;;38.67;19.48;;;0.20;85.90;;;;;;5013220;28;20206;-60
2022/01/27 04:50:53;;;;;;;39.33;19.23;;;0.10;86.10;;;;;;5013238;28;20214;-60
2022/01/27 04:53:27;;;;;;;38.20;19.20;;;0.20;86.80;;;;;;5013061;28;20234;-59
2022/01/27 04:55:57;;;;;;;43.50;20.33;;;0.50;86.50;;;;;;5013040;28;20245;-57
2022/01/27 04:58:30;;;;;;;47.22;21.58;;;0.80;85.70;;;;;;5013189;28;20207;-54
2022/01/27 05:00:59;;;;;;;35.78;16.65;;;0.90;84.50;;;;;;5011819;28;20289;-57
2022/01/27 05:03:35;;;;;;;37.25;16.48;;;1.00;84.50;;;;;;5012888;28;20658;-57
2022/01/27 05:06:02;;;;;;;37.58;17.20;;;1.00;83.50;;;;;;5012946;28;20285;-58
2022/01/27 05:08:30;;;;;;;38.85;18.27;;;0.60;83.50;;;;;;5013055;28;20207;-59
2022/01/27 05:11:01;;;;;;;35.95;17.38;;;0.60;84.80;;;;;;5012926;28;20297;-56
2022/01/27 05:13:34;;;;;;;40.33;19.05;;;0.60;84.60;;;;;;5012935;28;20230;-61
2022/01/27 05:16:02;;;;;;;35.90;17.17;;;0.50;83.90;;;;;;5011712;28;20289;-56
2022/01/27 05:18:29;;;;;;;35.45;17.70;;;0.40;84.60;;;;;;5012673;28;20297;-55
2022/01/27 05:20:55;;;;;;;38.35;17.60;;;0.30;84.90;;;;;;5012791;28;20301;-59
2022/01/27 05:23:22;;;;;;;36.05;18.02;;;0.30;85.10;;;;;;5012839;28;20297;-57
2022/01/27 05:25:51;;;;;;;38.92;18.60;;;0.10;85.00;;;;;;5012893;28;20203;-57
2022/01/27 05:28:17;;;;;;;39.67;19.10;;;-0.20;85.80;;;;;;5012731;28;20289;-60
2022/01/27 05:30:44;;;;;;;33.95;18.65;;;-0.30;86.60;;;;;;5011608;28;20206;-60
2022/01/27 05:33:11;;;;;;;37.95;17.42;;;-0.20;87.10;;;;;;5015821;28;20213;-58
2022/01/27 05:35:38;;;;;;;40.95;19.08;;;-0.20;86.60;;;;;;5016684;28;20231;-60
2022/01/27 05:38:05;;;;;;;43.88;20.10;;;-0.10;87.10;;;;;;5016562;28;20205;-59
2022/01/27 05:40:32;;;;;;;34.28;17.58;;;-0.20;86.40;;;;;;5016457;28;20270;-61
2022/01/27 05:43:00;;;;;;;38.28;19.50;;;-0.30;87.00;;;;;;5016392;28;20356;-59
2022/01/27 05:45:27;;;;;;;40.63;18.63;;;-0.30;87.40;;;;;;5015041;28;20198;-58
2022/01/27 05:47:53;;;;;;;40.42;19.20;;;-0.10;87.80;;;;;;5016169;28;20202;-60
2022/01/27 05:50:20;;;;;;;41.78;19.27;;;0.00;86.80;;;;;;5016370;28;20305;-57
2022/01/27 05:52:47;;;;;;;37.60;19.17;;;-0.30;85.90;;;;;;5016503;28;20293;-60
2022/01/27 05:55:14;;;;;;;37.97;19.42;;;-0.10;86.90;;;;;;5016102;28;20242;-59
2022/01/27 05:57:41;;;;;;;39.05;18.98;;;0.20;86.70;;;;;;5016032;28;20209;-58
2022/01/27 06:00:11;;;;;;;39.30;17.98;;;0.40;86.10;;;;;;5014782;28;20209;-55
2022/01/27 06:02:38;;;;;;;43.90;19.08;;;0.60;85.30;;;;;;5016089;28;20214;-58
2022/01/27 06:05:05;;;;;;;41.40;19.10;;;0.70;84.40;;;;;;5016059;28;20611;-55
2022/01/27 06:07:32;;;;;;;37.10;19.08;;;0.50;83.40;;;;;;5015874;28;20214;-53
2022/01/27 06:09:59;;;;;;;36.78;19.00;;;0.20;83.80;;;;;;5016006;28;20238;-56
2022/01/27 06:12:26;;;;;;;43.70;19.80;;;0.00;83.80;;;;;;5015724;28;20213;-55
2022/01/27 06:14:53;;;;;;;37.00;17.42;;;-0.10;85.10;;;;;;5014451;28;20234;-55
2022/01/27 06:17:21;;;;;;;33.10;18.58;;;-0.30;85.70;;;;;;5015798;28;20252;-55
2022/01/27 06:19:48;;;;;;;42.53;19.70;;;-0.40;86.40;;;;;;5015852;28;20203;-60
2022/01/27 06:22:16;;;;;;;39.28;19.02;;;-0.50;86.50;;;;;;5015566;28;20566;-56
2022/01/27 06:24:44;;;;;;;42.63;19.88;;;-0.30;87.30;;;;;;5015737;28;20229;-55
2022/01/27 06:27:11;;;;;;;41.47;20.05;;;-0.10;87.20;;;;;;5015450;28;20224;-57
2022/01/27 06:29:39;;;;;;;42.10;19.35;;;0.20;86.50;;;;;;5014318;28;20203;-54
2022/01/27 06:32:06;;;;;;;38.88;19.70;;;0.40;85.80;;;;;;5015435;28;20674;-56
2022/01/27 06:34:34;;;;;;;42.45;19.17;;;0.60;85.30;;;;;;5015229;28;20598;-54
2022/01/27 06:37:01;;;;;;;43.00;18.58;;;0.70;84.40;;;;;;5015364;28;20669;-58
2022/01/27 06:39:28;;;;;;;43.92;19.35;;;0.70;83.20;;;;;;5015188;28;20238;-53
2022/01/27 06:41:55;;;;;;;40.50;18.38;;;0.60;82.50;;;;;;5015165;28;20203;-53
2022/01/27 06:44:22;;;;;;;35.75;17.08;;;0.40;83.50;;;;;;5015238;28;20213;-56
2022/01/27 06:46:49;;;;;;;41.63;18.42;;;0.40;83.70;;;;;;5013876;28;20213;-57
2022/01/27 06:49:16;;;;;;;44.00;18.77;;;0.50;83.40;;;;;;5015238;28;20548;-58
2022/01/27 06:51:45;;;;;;;37.67;18.30;;;0.60;83.50;;;;;;5015069;28;20234;-53
2022/01/27 06:54:12;;;;;;;37.47;17.85;;;0.60;82.90;;;;;;5014921;28;20266;-56
2022/01/27 06:56:39;;;;;;;38.35;18.02;;;0.40;82.70;;;;;;5014722;28;20203;-59
2022/01/27 06:59:06;;;;;;;36.95;17.48;;;0.40;83.60;;;;;;5014958;28;20261;-57
2022/01/27 07:01:33;;;;;;;33.10;15.48;;;0.50;83.70;;;;;;5013570;28;20381;-60
2022/01/27 07:04:01;;;;;;;40.65;18.02;;;0.40;83.10;;;;;;5014933;28;20238;-59
2022/01/27 07:06:28;;;;;;;39.35;17.60;;;0.40;83.60;;;;;;5014699;28;20202;-57
2022/01/27 07:08:56;;;;;;;37.08;17.20;;;0.50;83.70;;;;;;5014588;28;20285;-61
2022/01/27 07:11:23;;;;;;;36.20;18.35;;;0.50;83.20;;;;;;5014462;28;20230;-57
2022/01/27 07:13:50;;;;;;;36.50;17.60;;;0.50;83.60;;;;;;5014611;28;20230;-56
2022/01/27 07:16:17;;;;;;;38.80;16.85;;;0.60;83.60;;;;;;5013407;28;20238;-57
2022/01/27 07:18:44;;;;;;;37.83;17.13;;;0.70;83.20;;;;;;5014435;28;20290;-57
2022/01/27 07:21:11;;;;;;;32.50;17.88;;;0.80;82.60;;;;;;5014539;28;20217;-56
2022/01/27 07:23:38;;;;;;;36.63;18.05;;;0.80;82.70;;;;;;5014282;28;20210;-54
2022/01/27 07:26:07;;;;;;;38.33;16.98;;;0.90;82.70;;;;;;5014446;28;20202;-55
2022/01/27 07:28:34;;;;;;;34.22;16.73;;;0.90;82.60;;;;;;5014137;28;20550;-54
2022/01/27 07:31:03;;;;;;;39.97;18.95;;;1.00;82.00;;;;;;5013015;28;20301;-54
2022/01/27 07:33:30;;;;;;;38.35;17.63;;;0.90;81.90;;;;;;5014127;28;20206;-58
2022/01/27 07:35:56;;;;;;;39.55;18.20;;;0.90;81.90;;;;;;5014132;28;20252;-55
2022/01/27 07:38:25;;;;;;;38.97;17.73;;;0.90;81.60;;;;;;5014034;28;20658;-57
2022/01/27 07:40:52;;;;;;;36.33;16.27;;;0.80;81.20;;;;;;5013940;28;20242;-55
2022/01/27 07:43:20;;;;;;;31.33;14.25;;;0.70;82.00;;;;;;5013829;28;20242;-57
2022/01/27 07:45:47;;;;;;;36.90;15.10;;;0.70;81.50;;;;;;5012745;28;20206;-57
2022/01/27 07:48:13;;;;;;;38.13;15.65;;;0.70;81.10;;;;;;5013980;28;20207;-58
2022/01/27 07:50:40;;;;;;;37.78;15.82;;;0.60;81.30;;;;;;5013924;28;20214;-59
2022/01/27 07:53:07;;;;;;;32.08;15.52;;;0.60;81.70;;;;;;5013788;28;20310;-56
2022/01/27 07:55:34;;;;;;;37.75;17.77;;;0.60;81.80;;;;;;5013306;28;20234;-58
2022/01/27 07:58:01;;;;;;;29.90;16.83;;;0.60;82.00;;;;;;5013525;28;20203;-57
2022/01/27 08:00:29;;;;;;;42.28;16.92;;;0.50;82.20;;;;;;5012436;28;20285;-58
2022/01/27 08:02:56;;;;;;;38.95;16.10;;;0.50;82.30;;;;;;5013685;28;20562;-61
2022/01/27 08:05:23;;;;;;;37.50;16.33;;;0.60;82.10;;;;;;5013594;28;20202;-61
2022/01/27 08:07:50;;;;;;;37.50;17.73;;;0.60;82.30;;;;;;5013570;28;20225;-61
2022/01/27 08:10:17;;;;;;;38.30;17.67;;;0.60;82.20;;;;;;5013469;28;20666;-61
2022/01/27 08:12:44;;;;;;;37.42;18.20;;;0.40;82.50;;;;;;5013588;28;20205;-60
2022/01/27 08:15:13;;;;;;;36.20;17.15;;;0.40;82.50;;;;;;5012066;28;20238;-61
2022/01/27 08:17:42;;;;;;;41.58;16.42;;;0.50;82.60;;;;;;5013539;28;20202;-61
2022/01/27 08:20:10;;;;;;;35.65;16.60;;;0.50;82.30;;;;;;5013404;28;20289;-60
2022/01/27 08:22:43;;;;;;;33.35;15.35;;;0.50;82.00;;;;;;5013479;28;20207;-62
2022/01/27 08:25:10;;;;;;;33.45;17.45;;;0.50;81.70;;;;;;5013486;28;20203;-62
2022/01/27 08:27:39;;;;;;;38.17;17.10;;;0.50;81.50;;;;;;5013323;28;20297;-60
2022/01/27 08:30:07;;;;;;;34.50;15.75;;;0.50;81.50;;;;;;5012318;28;20210;-60
2022/01/27 08:32:46;;;;;;;37.30;16.08;;;0.40;81.80;;;;;;5013157;28;20642;-61
2022/01/27 08:35:16;;;;;;;32.55;15.93;;;0.40;81.80;;;;;;5013297;28;20234;-61
2022/01/27 08:37:43;;;;;;;30.35;14.88;;;0.40;81.00;;;;;;5013200;28;20301;-60
2022/01/27 08:40:13;;;;;;;32.00;14.75;;;0.20;82.50;;;;;;5013026;28;20243;-61
2022/01/27 08:42:40;;;;;;;30.35;14.20;;;0.20;82.80;;;;;;5013066;28;20202;-61
2022/01/27 08:45:10;;;;;;;32.75;15.43;;;0.20;82.70;;;;;;5011647;28;20211;-61
2022/01/27 08:47:37;;;;;;;32.03;13.90;;;0.20;82.70;;;;;;5013128;28;20203;-61
2022/01/27 08:50:05;;;;;;;36.05;15.35;;;0.40;82.50;;;;;;5013000;28;20736;-61
2022/01/27 08:52:34;;;;;;;35.80;15.43;;;0.40;82.30;;;;;;5013024;28;20276;-61
2022/01/27 08:55:01;;;;;;;28.45;14.55;;;0.30;82.20;;;;;;5012977;28;20320;-60
2022/01/27 08:57:28;;;;;;;36.45;15.55;;;0.30;82.20;;;;;;5012733;28;20297;-59
2022/01/27 08:59:56;;;;;;;32.30;15.77;;;0.20;82.10;;;;;;5011673;28;20203;-61
2022/01/27 09:02:23;;;;;;;40.58;15.85;;;0.00;82.90;;;;;;5012986;28;20233;-61
2022/01/27 09:04:50;;;;;;;38.65;16.60;;;0.00;83.10;;;;;;5012986;28;20213;-60
2022/01/27 09:07:17;;;;;;;33.05;15.43;;;0.00;82.90;;;;;;5014869;28;20202;-61
2022/01/27 09:09:45;;;;;;;40.65;16.55;;;-0.20;83.90;;;;;;5016867;28;20203;-62
2022/01/27 09:12:13;;;;;;;39.05;17.30;;;-0.40;83.80;;;;;;5016684;28;20700;-61
2022/01/27 09:14:42;;;;;;;32.42;17.23;;;-0.80;84.00;;;;;;5015583;28;20325;-61
2022/01/27 09:17:09;;;;;;;40.70;15.63;;;-0.90;85.40;;;;;;5016892;28;20203;-61
2022/01/27 09:19:38;;;;;;;38.05;16.50;;;-0.70;86.10;;;;;;5016829;28;20289;-59
2022/01/27 09:22:11;;;;;;;35.40;14.80;;;-0.90;85.40;;;;;;5016726;28;20268;-60
2022/01/27 09:24:41;;;;;;;31.85;14.18;;;-1.10;86.70;;;;;;5016397;28;20276;-60
2022/01/27 09:27:09;;;;;;;28.40;14.07;;;-1.20;87.10;;;;;;5016585;28;20210;-58
2022/01/27 09:29:36;;;;;;;25.95;11.73;;;-1.40;87.20;;;;;;5015492;28;20233;-63
2022/01/27 09:32:03;;;;;;;26.77;12.00;;;-1.40;88.60;;;;;;5016694;28;20206;-63
2022/01/27 09:34:31;;;;;;;23.33;11.38;;;-1.40;88.80;;;;;;5016494;28;20681;-62
2022/01/27 09:37:02;;;;;;;24.80;11.38;;;-1.30;89.00;;;;;;5016537;28;20289;-61
2022/01/27 09:39:29;;;;;;;19.13;10.98;;;-1.30;89.10;;;;;;5016155;28;20329;-59
2022/01/27 09:41:58;;;;;;;31.50;12.30;;;-1.20;89.20;;;;;;5016208;28;20294;-60
2022/01/27 09:44:30;;;;;;;23.23;11.43;;;-1.10;88.70;;;;;;5016453;28;20253;-61
2022/01/27 09:46:59;;;;;;;23.73;9.90;;;-1.00;88.40;;;;;;5015875;28;20253;-60
2022/01/27 09:49:34;;;;;;;24.73;10.50;;;-1.00;88.20;;;;;;5016283;28;20658;-60
2022/01/27 09:52:02;;;;;;;18.33;9.45;;;-1.00;88.10;;;;;;5016175;28;20301;-60
2022/01/27 09:54:29;;;;;;;24.80;11.48;;;-0.90;88.60;;;;;;5016111;28;20253;-58
2022/01/27 09:56:56;;;;;;;18.42;9.77;;;-0.80;88.60;;;;;;5016066;28;20286;-60
2022/01/27 09:59:24;;;;;;;21.58;9.63;;;-0.70;88.70;;;;;;5016054;28;20207;-59
2022/01/27 10:01:59;;;;;;;21.80;10.02;;;-0.60;88.10;;;;;;5014721;28;20207;-59
2022/01/27 10:04:42;;;;;;;17.65;9.52;;;-0.50;87.90;;;;;;5015770;28;20688;-60
2022/01/27 10:07:08;;;;;;;21.08;10.20;;;-0.40;87.60;;;;;;5016056;28;20211;-56
2022/01/27 10:09:36;;;;;;;19.23;9.68;;;-0.40;87.90;;;;;;5015973;28;20253;-56
2022/01/27 10:12:04;;;;;;;17.70;9.68;;;-0.30;88.00;;;;;;5015733;28;20673;-56
2022/01/27 10:14:37;;;;;;;23.52;11.07;;;-0.30;88.10;;;;;;5014819;28;20753;-58
2022/01/27 10:17:11;;;;;;;26.10;12.05;;;-0.30;88.10;;;;;;5015356;28;20211;-60
2022/01/27 10:19:38;;;;;;;22.65;12.10;;;-0.30;87.80;;;;;;5015642;28;20612;-59
2022/01/27 10:22:06;;;;;;;23.33;11.80;;;-0.40;87.50;;;;;;5015702;28;20297;-59
2022/01/27 10:24:35;;;;;;;22.95;11.93;;;-0.50;87.60;;;;;;5015632;28;20206;-60
2022/01/27 10:27:28;;;;;;;25.00;12.68;;;-0.40;88.10;;;;;;5015474;28;20199;-56
2022/01/27 10:30:36;;;;;;;23.75;11.70;;;-0.30;87.70;;;;;;5014164;28;20217;-57
2022/01/27 10:32:59;;;;;;;22.67;11.10;;;-0.20;87.00;;;;;;5015352;28;20336;-58
2022/01/27 10:35:28;;;;;;;21.70;11.32;;;-0.40;87.70;;;;;;5015383;28;20231;-59
2022/01/27 10:38:01;;;;;;;23.13;11.75;;;-0.40;88.20;;;;;;5015293;28;20213;-57
2022/01/27 10:40:31;;;;;;;19.92;10.25;;;-0.20;88.20;;;;;;5015159;28;20231;-60
2022/01/27 10:43:04;;;;;;;20.80;10.25;;;-0.10;87.70;;;;;;5015174;28;20202;-59
2022/01/27 10:45:31;;;;;;;18.42;9.20;;;-0.10;87.30;;;;;;5013950;28;20295;-58
2022/01/27 10:48:12;;;;;;;19.33;10.07;;;0.00;87.70;;;;;;5015135;28;20683;-56
2022/01/27 10:51:01;;;;;;;22.15;10.63;;;0.10;87.30;;;;;;5015355;28;20734;-56
2022/01/27 10:54:04;;;;;;;21.33;10.38;;;0.20;87.00;;;;;;5015070;28;20223;-58
2022/01/27 10:56:33;;;;;;;20.40;11.20;;;0.30;87.00;;;;;;4954295;29;20232;-55
2022/01/27 10:59:03;;;;;;;19.75;10.73;;;0.30;86.20;;;;;;5003810;28;20198;-56
2022/01/27 11:01:32;;;;;;;19.23;10.88;;;0.30;86.20;;;;;;5013650;28;20213;-56
2022/01/27 11:04:04;;;;;;;23.45;11.10;;;0.20;86.40;;;;;;5014920;28;20202;-56
2022/01/27 11:06:33;;;;;;;18.48;10.45;;;0.20;86.30;;;;;;5014807;28;20213;-55
2022/01/27 11:09:07;;;;;;;19.33;9.80;;;0.20;87.00;;;;;;5014708;28;20575;-56
2022/01/27 11:11:35;;;;;;;18.27;10.40;;;0.30;86.80;;;;;;5014749;28;20528;-57
2022/01/27 11:14:03;;;;;;;19.17;10.02;;;0.40;87.10;;;;;;5014586;28;20593;-57
2022/01/27 11:16:35;;;;;;;21.25;10.15;;;0.50;86.70;;;;;;5013164;28;20230;-55
2022/01/27 11:19:20;;;;;;;18.70;10.35;;;0.50;86.80;;;;;;5014749;28;20293;-56
2022/01/27 11:21:53;;;;;;;17.10;9.07;;;0.60;86.70;;;;;;5014496;28;20666;-56
2022/01/27 11:24:27;;;;;;;19.67;11.30;;;0.70;86.20;;;;;;5014725;28;20206;-56
2022/01/27 11:26:57;;;;;;;18.83;10.88;;;0.70;86.00;;;;;;5014523;28;20290;-56
2022/01/27 11:29:26;;;;;;;22.98;12.65;;;0.80;85.60;;;;;;5013557;28;20550;-56
2022/01/27 11:32:08;;;;;;;26.75;13.00;;;0.80;84.40;;;;;;5013214;28;20206;-56
2022/01/27 11:34:51;;;;;;;28.48;13.35;;;0.70;85.00;;;;;;5014447;28;20286;-56
2022/01/27 11:37:30;;;;;;;20.95;11.70;;;0.80;85.20;;;;;;5014497;28;20207;-58
2022/01/27 11:39:57;;;;;;;23.15;10.95;;;0.80;84.80;;;;;;5014025;28;20246;-61
2022/01/27 11:42:44;;;;;;;20.20;11.07;;;0.90;85.20;;;;;;5014002;28;20642;-56
2022/01/27 11:45:27;;;;;;;18.58;11.70;;;1.10;84.40;;;;;;5012824;28;20669;-57
2022/01/27 11:47:57;;;;;;;21.48;10.40;;;1.10;83.00;;;;;;5014106;28;20262;-56
2022/01/27 11:50:34;;;;;;;23.10;12.10;;;1.00;82.50;;;;;;5013985;28;20256;-60
2022/01/27 11:53:02;;;;;;;19.55;10.95;;;0.90;82.80;;;;;;5013882;28;20241;-58
2022/01/27 11:55:44;;;;;;;21.83;11.95;;;1.00;83.50;;;;;;5013889;28;20234;-58
2022/01/27 11:58:21;;;;;;;18.92;9.88;;;1.10;83.00;;;;;;5013713;28;20242;-59
2022/01/27 12:01:10;;;;;;;17.70;10.70;;;1.10;82.70;;;;;;5012551;28;20554;-61
2022/01/27 12:03:38;;;;;;;19.92;11.68;;;1.00;83.20;;;;;;5013820;28;20207;-56
2022/01/27 12:06:21;;;;;;;19.42;11.38;;;1.00;83.30;;;;;;5013790;28;20206;-56
2022/01/27 12:08:48;;;;;;;22.13;12.00;;;1.00;83.40;;;;;;5013743;28;20579;-58
2022/01/27 12:11:45;;;;;;;19.17;10.38;;;1.00;83.20;;;;;;5013750;28;20212;-57
2022/01/27 12:14:14;;;;;;;17.77;11.00;;;1.00;83.40;;;;;;5013590;28;20234;-58
2022/01/27 12:19:23;;;;;;;18.08;9.98;;;1.00;83.60;;;;;;5011944;28;20203;-61
2022/01/27 12:22:01;;;;;;;19.48;11.50;;;1.00;83.00;;;;;;5013531;28;20239;-59
2022/01/27 12:24:30;;;;;;;22.65;12.00;;;1.00;83.10;;;;;;5013529;28;20214;-56
2022/01/27 12:26:59;;;;;;;21.90;11.73;;;1.20;83.40;;;;;;5013497;28;20203;-60
2022/01/27 12:29:29;;;;;;;20.17;11.77;;;1.30;82.70;;;;;;5013258;28;20214;-60
2022/01/27 12:31:58;;;;;;;19.00;10.43;;;1.30;81.80;;;;;;5012825;28;20289;-57
2022/01/27 12:34:25;;;;;;;16.75;11.13;;;1.50;82.20;;;;;;5013281;28;20213;-60
2022/01/27 12:36:56;;;;;;;36.30;12.32;;;1.50;81.50;;;;;;5013202;28;20238;-58
2022/01/27 12:39:27;;;;;;;22.30;12.00;;;1.40;81.30;;;;;;5013121;28;20441;-58
2022/01/27 12:41:55;;;;;;;20.55;12.30;;;1.50;82.40;;;;;;5013193;28;20199;-58
2022/01/27 12:44:22;;;;;;;17.98;11.57;;;1.50;81.50;;;;;;5013041;28;20213;-58
2022/01/27 12:47:03;;;;;;;20.83;13.15;;;1.50;81.90;;;;;;5011991;28;20253;-59
2022/01/27 12:49:43;;;;;;;17.60;12.52;;;1.50;81.90;;;;;;5013139;28;20606;-57
2022/01/27 12:52:11;;;;;;;15.65;11.02;;;1.60;81.70;;;;;;5013175;28;20242;-56
2022/01/27 12:54:40;;;;;;;25.52;12.85;;;1.70;81.30;;;;;;5013163;28;20207;-63
2022/01/27 12:57:09;;;;;;;19.85;11.75;;;1.70;81.20;;;;;;5012977;28;20337;-61
2022/01/27 12:59:38;;;;;;;24.33;11.90;;;1.70;80.80;;;;;;5011537;28;20210;-58
2022/01/27 13:02:07;;;;;;;22.42;12.40;;;1.80;80.90;;;;;;5009826;28;20691;-61
2022/01/27 13:04:36;;;;;;;19.15;12.13;;;1.90;80.30;;;;;;5001864;28;20220;-56
2022/01/27 13:07:04;;;;;;;19.35;12.70;;;1.90;80.30;;;;;;4993353;28;20689;-54
2022/01/27 13:09:32;;;;;;;18.60;11.82;;;1.90;80.80;;;;;;4998967;28;20305;-57
2022/01/27 13:12:12;;;;;;;19.30;12.20;;;1.80;80.40;;;;;;5012903;28;20619;-59
2022/01/27 13:15:00;;;;;;;20.05;11.38;;;1.80;80.90;;;;;;5011345;28;20203;-58
2022/01/27 13:17:34;;;;;;;21.25;12.65;;;1.80;81.10;;;;;;5012720;28;20226;-58